KAQX

Allendale County Airport

Allendale, South Carolina, USA
METAR KAQX 231615Z AUTO 00000KT 10SM SCT021 SCT026 SCT031 22/18 A3044 RMK AO2
Observed Flight Rules
Feb-23 @ 16:15 UTC (22 minutes ago) Visual Flight Rules
Wind Visibility Clouds
Calm 10 miles
  • Scattered at 2,100' AGL
  • Scattered at 2,600' AGL
  • Scattered at 3,100' AGL
Temperatures Readings
Current 22°C / 72°F
Dewpoint 18°C / 64°F
Humidity 78%
Altimeter 30.44" Hg
Pressure 1031 hPa
Elevation 49
METAR KAQX 231615Z AUTO 00000KT 10SM SCT021 SCT026 SCT031 22/18 A3044 RMK AO2
Observed Flight Rules
Feb-23 @ 16:15 UTC
(22 minutes ago)
VFR
Wind Visibility
Calm 10 miles
Clouds
  • Scattered at 2,100' AGL
  • Scattered at 2,600' AGL
  • Scattered at 3,100' AGL
Temperature Dewpoint
22°C / 72°F 18°C / 64°F
Humidity Altimeter Pressure
78% 30.44" Hg 1031 hPa